Rockwall, TX (75087)

7:19 PM CST on February 13, 2016 (GMT -0600)
Pinnacle 1 | | Change Station
CLOSE
Current Station
Personal Weather Station
Location: Rockwall, TX
Elevation: 551 ft
Nearby Weather Stations

Elev 551 ft 32.94 °N, 96.47 °W | Updated 13 minutes ago

Clear
Clear
58.4 °F
Feels Like 58.4 °F
N
8.0
Wind Variable Wind from SE
Gusts 13.0 mph

Today
High -- | Low -- °F
--% Chance of Precip.
Yesterday
High -- | Low -- °F
Precip. -- in
Pressure 30.16 in
Visibility 10.0 miles
Clouds Clear
Dew Point 41 °F
Humidity 53%
Rainfall 0.00 in
Snow Depth Not available.
7:11 AM 6:08 PM
Waxing Crescent, 36% visible
METAR KF46 140115Z AUTO 14008KT 10SM CLR 14/04 A3016 RMK AO2 T01380041
Pressure 30.16 in
Visibility 10.0 miles
Clouds Clear
Dew Point 41 °F
Humidity 53%
Rainfall 0.00 in
Snow Depth Not available.
7:11 AM 6:08 PM
Waxing Crescent, 36% visible
METAR KF46 140115Z AUTO 14008KT 10SM CLR 14/04 A3016 RMK AO2 T01380041

10-Day Weather Forecast

Almanac

Astronomy

Feb. 13, 2016 Rise Set
Actual Time
Civil Twilight
Nautical Twilight
Astronomical Twilight
Moon
Length of Visible Light
Length of Day
Tomorrow will be .
, % of the Moon is Illuminated

Today's Extremes

State Highs State Lows

Community

WunderPhotos

Upload Photos

1,892,723 photos uploaded!

WunderBlog® & News

Nearby

Air Quality

  Air Quality AQ Index Pollutant
Not available.

Snow Depth

Station Depth Elevation

Earthquake Activity

City Distance Mag. Time & Date
Minimum magnitude displayed is 2.5.

Coastal Water Temperatures

Place Temperature

Stations

Nearby Weather Stations

Station Location Temp. Windchill Dew Point Humidity Wind Precip. Elev Updated Type
                   

Watches & Warnings

There are currently no watches in effect.